sensor_id;sensor_type;location;lat;lon;timestamp;pressure;altitude;pressure_sealevel;temperature;humidity
8069;BME280;4077;43.702;24.896;2023-12-28T00:01:16;100536.50;;;2.64;100.00
8069;BME280;4077;43.702;24.896;2023-12-28T00:03:42;100551.94;;;2.67;100.00
8069;BME280;4077;43.702;24.896;2023-12-28T00:06:07;100549.25;;;2.64;100.00
8069;BME280;4077;43.702;24.896;2023-12-28T00:08:33;100565.63;;;2.68;100.00
8069;BME280;4077;43.702;24.896;2023-12-28T00:10:58;100559.81;;;2.70;100.00
8069;BME280;4077;43.702;24.896;2023-12-28T00:13:24;100568.63;;;2.76;100.00
8069;BME280;4077;43.702;24.896;2023-12-28T00:15:49;100573.59;;;2.74;100.00
8069;BME280;4077;43.702;24.896;2023-12-28T00:18:15;100578.91;;;2.77;100.00
8069;BME280;4077;43.702;24.896;2023-12-28T00:20:40;100575.38;;;2.75;100.00
8069;BME280;4077;43.702;24.896;2023-12-28T00:23:06;100588.34;;;2.65;100.00
8069;BME280;4077;43.702;24.896;2023-12-28T00:25:31;100580.06;;;2.54;100.00
8069;BME280;4077;43.702;24.896;2023-12-28T00:27:57;100575.34;;;2.47;100.00
8069;BME280;4077;43.702;24.896;2023-12-28T00:30:22;100586.34;;;2.46;100.00
8069;BME280;4077;43.702;24.896;2023-12-28T00:32:48;100584.41;;;2.42;100.00
8069;BME280;4077;43.702;24.896;2023-12-28T00:35:13;100581.66;;;2.39;100.00
8069;BME280;4077;43.702;24.896;2023-12-28T00:37:39;100581.47;;;2.36;100.00
8069;BME280;4077;43.702;24.896;2023-12-28T00:40:05;100578.56;;;2.30;100.00
8069;BME280;4077;43.702;24.896;2023-12-28T00:42:31;100571.91;;;2.18;100.00
8069;BME280;4077;43.702;24.896;2023-12-28T00:44:56;100579.38;;;2.15;100.00
8069;BME280;4077;43.702;24.896;2023-12-28T00:47:21;100563.31;;;2.03;100.00
8069;BME280;4077;43.702;24.896;2023-12-28T00:49:47;100572.72;;;2.04;100.00
8069;BME280;4077;43.702;24.896;2023-12-28T00:52:13;100569.50;;;1.94;100.00
8069;BME280;4077;43.702;24.896;2023-12-28T00:54:38;100574.31;;;1.89;100.00
8069;BME280;4077;43.702;24.896;2023-12-28T00:57:04;100566.97;;;1.80;100.00
8069;BME280;4077;43.702;24.896;2023-12-28T00:59:30;100573.91;;;1.83;100.00
8069;BME280;4077;43.702;24.896;2023-12-28T01:01:56;100583.22;;;1.82;100.00
8069;BME280;4077;43.702;24.896;2023-12-28T01:04:22;100588.22;;;1.81;100.00
8069;BME280;4077;43.702;24.896;2023-12-28T01:06:51;100572.72;;;1.78;100.00
8069;BME280;4077;43.702;24.896;2023-12-28T01:09:17;100582.03;;;1.90;100.00
8069;BME280;4077;43.702;24.896;2023-12-28T01:11:42;100573.72;;;1.93;100.00
8069;BME280;4077;43.702;24.896;2023-12-28T01:14:08;100571.75;;;2.02;100.00
8069;BME280;4077;43.702;24.896;2023-12-28T01:16:33;100568.22;;;2.00;100.00
8069;BME280;4077;43.702;24.896;2023-12-28T01:19:00;100572.44;;;2.00;100.00
8069;BME280;4077;43.702;24.896;2023-12-28T01:21:26;100559.41;;;1.95;100.00
8069;BME280;4077;43.702;24.896;2023-12-28T01:23:51;100547.09;;;1.88;100.00
8069;BME280;4077;43.702;24.896;2023-12-28T01:26:17;100550.59;;;1.90;100.00
8069;BME280;4077;43.702;24.896;2023-12-28T01:28:43;100543.19;;;1.93;100.00
8069;BME280;4077;43.702;24.896;2023-12-28T01:31:09;100549.03;;;1.92;100.00
8069;BME280;4077;43.702;24.896;2023-12-28T01:33:34;100545.03;;;1.82;100.00
8069;BME280;4077;43.702;24.896;2023-12-28T01:36:01;100551.41;;;1.76;100.00
8069;BME280;4077;43.702;24.896;2023-12-28T01:38:27;100543.97;;;1.66;100.00
8069;BME280;4077;43.702;24.896;2023-12-28T01:40:52;100541.13;;;1.61;100.00
8069;BME280;4077;43.702;24.896;2023-12-28T01:43:18;100536.84;;;1.60;100.00
8069;BME280;4077;43.702;24.896;2023-12-28T01:45:44;100545.53;;;1.63;100.00
8069;BME280;4077;43.702;24.896;2023-12-28T01:48:10;100542.81;;;1.60;100.00
8069;BME280;4077;43.702;24.896;2023-12-28T01:50:37;100534.78;;;1.54;100.00
8069;BME280;4077;43.702;24.896;2023-12-28T01:53:03;100533.69;;;1.51;100.00
8069;BME280;4077;43.702;24.896;2023-12-28T01:55:30;100518.13;;;1.33;100.00
8069;BME280;4077;43.702;24.896;2023-12-28T01:57:56;100521.25;;;1.29;100.00
8069;BME280;4077;43.702;24.896;2023-12-28T02:00:22;100507.72;;;1.17;100.00
8069;BME280;4077;43.702;24.896;2023-12-28T02:02:48;100516.94;;;1.15;100.00
8069;BME280;4077;43.702;24.896;2023-12-28T02:05:14;100521.84;;;1.12;100.00
8069;BME280;4077;43.702;24.896;2023-12-28T02:07:40;100530.13;;;1.09;100.00
8069;BME280;4077;43.702;24.896;2023-12-28T02:10:07;100526.28;;;1.02;100.00
8069;BME280;4077;43.702;24.896;2023-12-28T02:12:33;100535.09;;;1.07;100.00
8069;BME280;4077;43.702;24.896;2023-12-28T02:14:59;100541.38;;;1.13;100.00
8069;BME280;4077;43.702;24.896;2023-12-28T02:20:12;100514.38;;;1.01;100.00
8069;BME280;4077;43.702;24.896;2023-12-28T02:22:38;100536.47;;;1.02;100.00
8069;BME280;4077;43.702;24.896;2023-12-28T02:25:06;100530.09;;;0.96;100.00
8069;BME280;4077;43.702;24.896;2023-12-28T02:27:42;100517.75;;;0.89;100.00
8069;BME280;4077;43.702;24.896;2023-12-28T02:30:09;100521.78;;;0.85;100.00
8069;BME280;4077;43.702;24.896;2023-12-28T02:32:52;100530.28;;;0.86;100.00
8069;BME280;4077;43.702;24.896;2023-12-28T02:35:42;100533.09;;;0.77;100.00
8069;BME280;4077;43.702;24.896;2023-12-28T02:38:10;100544.59;;;0.72;100.00
8069;BME280;4077;43.702;24.896;2023-12-28T02:40:38;100534.13;;;0.67;100.00
8069;BME280;4077;43.702;24.896;2023-12-28T02:43:07;100532.09;;;0.75;100.00
8069;BME280;4077;43.702;24.896;2023-12-28T02:45:34;100516.66;;;0.72;100.00
8069;BME280;4077;43.702;24.896;2023-12-28T02:48:00;100530.97;;;0.83;100.00
8069;BME280;4077;43.702;24.896;2023-12-28T02:50:25;100533.78;;;0.88;100.00
8069;BME280;4077;43.702;24.896;2023-12-28T02:52:51;100536.44;;;0.89;100.00
8069;BME280;4077;43.702;24.896;2023-12-28T02:55:17;100538.38;;;0.80;100.00
8069;BME280;4077;43.702;24.896;2023-12-28T02:57:44;100540.03;;;0.79;100.00
8069;BME280;4077;43.702;24.896;2023-12-28T03:00:09;100544.78;;;0.75;100.00
8069;BME280;4077;43.702;24.896;2023-12-28T03:02:36;100537.34;;;0.65;100.00
8069;BME280;4077;43.702;24.896;2023-12-28T03:05:04;100555.31;;;0.68;100.00
8069;BME280;4077;43.702;24.896;2023-12-28T03:07:30;100552.59;;;0.65;100.00
8069;BME280;4077;43.702;24.896;2023-12-28T03:09:55;100560.56;;;0.58;100.00
8069;BME280;4077;43.702;24.896;2023-12-28T03:12:21;100564.44;;;0.52;100.00
8069;BME280;4077;43.702;24.896;2023-12-28T03:14:47;100555.78;;;0.37;100.00
8069;BME280;4077;43.702;24.896;2023-12-28T03:17:12;100569.63;;;0.29;100.00
8069;BME280;4077;43.702;24.896;2023-12-28T03:19:39;100565.50;;;0.31;100.00
8069;BME280;4077;43.702;24.896;2023-12-28T03:22:04;100558.41;;;0.39;100.00
8069;BME280;4077;43.702;24.896;2023-12-28T03:24:30;100535.78;;;0.42;100.00
8069;BME280;4077;43.702;24.896;2023-12-28T03:26:55;100523.75;;;0.39;100.00
8069;BME280;4077;43.702;24.896;2023-12-28T03:29:20;100527.53;;;0.33;100.00
8069;BME280;4077;43.702;24.896;2023-12-28T03:31:46;100530.31;;;0.24;100.00
8069;BME280;4077;43.702;24.896;2023-12-28T03:34:11;100530.66;;;0.29;100.00
8069;BME280;4077;43.702;24.896;2023-12-28T03:36:37;100532.19;;;0.26;100.00
8069;BME280;4077;43.702;24.896;2023-12-28T03:39:02;100538.38;;;0.30;100.00
8069;BME280;4077;43.702;24.896;2023-12-28T03:41:31;100537.44;;;0.41;100.00
8069;BME280;4077;43.702;24.896;2023-12-28T03:43:56;100518.66;;;0.39;100.00
8069;BME280;4077;43.702;24.896;2023-12-28T03:46:22;100532.16;;;0.38;100.00
8069;BME280;4077;43.702;24.896;2023-12-28T03:48:47;100533.19;;;0.29;100.00
8069;BME280;4077;43.702;24.896;2023-12-28T03:51:14;100532.06;;;0.25;100.00
8069;BME280;4077;43.702;24.896;2023-12-28T03:53:44;100526.22;;;0.26;100.00
8069;BME280;4077;43.702;24.896;2023-12-28T03:56:26;100531.53;;;0.29;100.00
8069;BME280;4077;43.702;24.896;2023-12-28T03:58:52;100513.97;;;0.20;100.00
8069;BME280;4077;43.702;24.896;2023-12-28T04:01:18;100520.94;;;0.23;100.00
8069;BME280;4077;43.702;24.896;2023-12-28T04:03:44;100531.13;;;0.11;100.00
8069;BME280;4077;43.702;24.896;2023-12-28T04:06:10;100518.78;;;0.04;100.00
8069;BME280;4077;43.702;24.896;2023-12-28T04:08:36;100527.94;;;0.14;100.00
8069;BME280;4077;43.702;24.896;2023-12-28T04:11:01;100528.03;;;0.15;100.00
8069;BME280;4077;43.702;24.896;2023-12-28T04:13:26;100539.06;;;0.28;100.00
8069;BME280;4077;43.702;24.896;2023-12-28T04:15:52;100542.84;;;0.34;100.00
8069;BME280;4077;43.702;24.896;2023-12-28T04:18:17;100545.63;;;0.37;100.00
8069;BME280;4077;43.702;24.896;2023-12-28T04:20:43;100539.75;;;0.38;100.00
8069;BME280;4077;43.702;24.896;2023-12-28T04:23:10;100543.28;;;0.40;100.00
8069;BME280;4077;43.702;24.896;2023-12-28T04:25:35;100540.56;;;0.37;100.00
8069;BME280;4077;43.702;24.896;2023-12-28T04:28:01;100536.19;;;0.23;100.00
8069;BME280;4077;43.702;24.896;2023-12-28T04:30:26;100531.47;;;0.04;100.00
8069;BME280;4077;43.702;24.896;2023-12-28T04:32:52;100555.63;;;0.11;100.00
8069;BME280;4077;43.702;24.896;2023-12-28T04:35:18;100538.41;;;0.07;100.00
8069;BME280;4077;43.702;24.896;2023-12-28T04:37:43;100549.91;;;0.02;100.00
8069;BME280;4077;43.702;24.896;2023-12-28T04:40:09;100549.00;;;0.13;100.00
8069;BME280;4077;43.702;24.896;2023-12-28T04:42:34;100535.22;;;0.09;100.00
8069;BME280;4077;43.702;24.896;2023-12-28T04:45:00;100549.41;;;0.19;100.00
8069;BME280;4077;43.702;24.896;2023-12-28T04:47:25;100558.06;;;0.21;100.00
8069;BME280;4077;43.702;24.896;2023-12-28T04:49:51;100558.69;;;0.18;100.00
8069;BME280;4077;43.702;24.896;2023-12-28T04:52:16;100556.41;;;0.10;100.00
8069;BME280;4077;43.702;24.896;2023-12-28T04:54:42;100559.81;;;0.10;100.00
8069;BME280;4077;43.702;24.896;2023-12-28T04:57:07;100552.22;;;-0.02;100.00
8069;BME280;4077;43.702;24.896;2023-12-28T04:59:39;100553.00;;;-0.03;100.00
8069;BME280;4077;43.702;24.896;2023-12-28T05:02:04;100543.88;;;-0.12;100.00
8069;BME280;4077;43.702;24.896;2023-12-28T05:04:30;100543.34;;;-0.20;100.00
8069;BME280;4077;43.702;24.896;2023-12-28T05:06:55;100521.50;;;-0.41;100.00
8069;BME280;4077;43.702;24.896;2023-12-28T05:09:21;100527.78;;;-0.36;100.00
8069;BME280;4077;43.702;24.896;2023-12-28T05:11:46;100510.69;;;-0.50;100.00
8069;BME280;4077;43.702;24.896;2023-12-28T05:14:12;100531.88;;;-0.38;100.00
8069;BME280;4077;43.702;24.896;2023-12-28T05:16:37;100547.19;;;-0.25;100.00
8069;BME280;4077;43.702;24.896;2023-12-28T05:19:03;100538.38;;;-0.18;100.00
8069;BME280;4077;43.702;24.896;2023-12-28T05:21:28;100544.84;;;-0.10;100.00
8069;BME280;4077;43.702;24.896;2023-12-28T05:23:54;100544.31;;;-0.18;100.00
8069;BME280;4077;43.702;24.896;2023-12-28T05:26:19;100550.38;;;-0.16;100.00
8069;BME280;4077;43.702;24.896;2023-12-28T05:28:45;100556.78;;;-0.21;100.00
8069;BME280;4077;43.702;24.896;2023-12-28T05:31:10;100537.59;;;-0.29;100.00
8069;BME280;4077;43.702;24.896;2023-12-28T05:33:36;100543.88;;;-0.36;100.00
8069;BME280;4077;43.702;24.896;2023-12-28T05:36:01;100542.91;;;-0.38;100.00
8069;BME280;4077;43.702;24.896;2023-12-28T05:38:27;100537.38;;;-0.44;100.00
8069;BME280;4077;43.702;24.896;2023-12-28T05:40:52;100529.22;;;-0.51;100.00
8069;BME280;4077;43.702;24.896;2023-12-28T05:43:18;100520.31;;;-0.58;100.00
8069;BME280;4077;43.702;24.896;2023-12-28T05:45:43;100519.50;;;-0.69;100.00
8069;BME280;4077;43.702;24.896;2023-12-28T05:48:09;100515.34;;;-0.68;100.00
8069;BME280;4077;43.702;24.896;2023-12-28T05:50:34;100519.66;;;-0.67;100.00
8069;BME280;4077;43.702;24.896;2023-12-28T05:52:59;100514.44;;;-0.69;100.00
8069;BME280;4077;43.702;24.896;2023-12-28T05:55:25;100507.63;;;-0.70;100.00
8069;BME280;4077;43.702;24.896;2023-12-28T05:57:50;100516.00;;;-0.59;100.00
8069;BME280;4077;43.702;24.896;2023-12-28T06:00:16;100528.25;;;-0.53;100.00
8069;BME280;4077;43.702;24.896;2023-12-28T06:02:41;100523.38;;;-0.50;100.00
8069;BME280;4077;43.702;24.896;2023-12-28T06:05:07;100518.75;;;-0.56;100.00
8069;BME280;4077;43.702;24.896;2023-12-28T06:07:33;100527.81;;;-0.48;100.00
8069;BME280;4077;43.702;24.896;2023-12-28T06:09:59;100537.97;;;-0.48;100.00
8069;BME280;4077;43.702;24.896;2023-12-28T06:12:25;100543.03;;;-0.48;100.00
8069;BME280;4077;43.702;24.896;2023-12-28T06:14:50;100544.66;;;-0.48;100.00
8069;BME280;4077;43.702;24.896;2023-12-28T06:17:15;100546.22;;;-0.50;100.00
8069;BME280;4077;43.702;24.896;2023-12-28T06:19:43;100540.47;;;-0.60;100.00
8069;BME280;4077;43.702;24.896;2023-12-28T06:22:09;100559.88;;;-0.48;100.00
8069;BME280;4077;43.702;24.896;2023-12-28T06:24:37;100544.09;;;-0.56;100.00
8069;BME280;4077;43.702;24.896;2023-12-28T06:27:03;100555.38;;;-0.52;100.00
8069;BME280;4077;43.702;24.896;2023-12-28T06:29:29;100535.16;;;-0.63;100.00
8069;BME280;4077;43.702;24.896;2023-12-28T06:31:54;100542.03;;;-0.62;100.00
8069;BME280;4077;43.702;24.896;2023-12-28T06:34:19;100535.75;;;-0.67;100.00
8069;BME280;4077;43.702;24.896;2023-12-28T06:36:45;100536.50;;;-0.68;100.00
8069;BME280;4077;43.702;24.896;2023-12-28T06:39:10;100540.47;;;-0.71;100.00
8069;BME280;4077;43.702;24.896;2023-12-28T06:41:36;100529.66;;;-0.80;100.00
8069;BME280;4077;43.702;24.896;2023-12-28T06:44:01;100545.09;;;-0.66;100.00
8069;BME280;4077;43.702;24.896;2023-12-28T06:46:26;100547.09;;;-0.62;100.00
8069;BME280;4077;43.702;24.896;2023-12-28T06:48:52;100536.28;;;-0.59;100.00
8069;BME280;4077;43.702;24.896;2023-12-28T06:51:18;100539.56;;;-0.48;100.00
8069;BME280;4077;43.702;24.896;2023-12-28T06:53:45;100539.25;;;-0.41;100.00
8069;BME280;4077;43.702;24.896;2023-12-28T06:56:10;100550.63;;;-0.36;100.00
8069;BME280;4077;43.702;24.896;2023-12-28T06:58:36;100554.81;;;-0.25;100.00
8069;BME280;4077;43.702;24.896;2023-12-28T07:01:04;100548.19;;;-0.23;100.00
8069;BME280;4077;43.702;24.896;2023-12-28T07:03:31;100562.19;;;-0.16;100.00
8069;BME280;4077;43.702;24.896;2023-12-28T07:06:01;100555.22;;;-0.07;100.00
8069;BME280;4077;43.702;24.896;2023-12-28T07:08:26;100571.34;;;-0.07;100.00
8069;BME280;4077;43.702;24.896;2023-12-28T07:10:52;100574.28;;;-0.01;100.00
8069;BME280;4077;43.702;24.896;2023-12-28T07:13:17;100579.38;;;-0.01;100.00
8069;BME280;4077;43.702;24.896;2023-12-28T07:15:43;100587.66;;;0.09;100.00
8069;BME280;4077;43.702;24.896;2023-12-28T07:18:08;100579.25;;;0.10;100.00
8069;BME280;4077;43.702;24.896;2023-12-28T07:20:34;100586.97;;;0.23;100.00
8069;BME280;4077;43.702;24.896;2023-12-28T07:22:59;100578.41;;;0.34;100.00
8069;BME280;4077;43.702;24.896;2023-12-28T07:25:25;100573.22;;;0.44;100.00
8069;BME280;4077;43.702;24.896;2023-12-28T07:27:50;100548.94;;;0.36;100.00
8069;BME280;4077;43.702;24.896;2023-12-28T07:30:16;100578.00;;;0.65;100.00
8069;BME280;4077;43.702;24.896;2023-12-28T07:32:43;100572.59;;;0.85;100.00
8069;BME280;4077;43.702;24.896;2023-12-28T07:35:08;100580.16;;;1.35;100.00
8069;BME280;4077;43.702;24.896;2023-12-28T07:37:34;100587.34;;;1.94;100.00
8069;BME280;4077;43.702;24.896;2023-12-28T07:40:00;100597.16;;;2.42;100.00
8069;BME280;4077;43.702;24.896;2023-12-28T07:42:26;100591.59;;;2.62;100.00
8069;BME280;4077;43.702;24.896;2023-12-28T07:44:51;100610.50;;;2.66;100.00
8069;BME280;4077;43.702;24.896;2023-12-28T07:47:17;100583.53;;;3.12;100.00
8069;BME280;4077;43.702;24.896;2023-12-28T07:49:42;100614.56;;;4.72;100.00
8069;BME280;4077;43.702;24.896;2023-12-28T07:52:08;100637.84;;;5.60;100.00
8069;BME280;4077;43.702;24.896;2023-12-28T07:54:33;100622.03;;;5.51;100.00
8069;BME280;4077;43.702;24.896;2023-12-28T07:56:59;100626.81;;;5.61;100.00
8069;BME280;4077;43.702;24.896;2023-12-28T07:59:25;100641.16;;;5.91;100.00
8069;BME280;4077;43.702;24.896;2023-12-28T08:01:50;100646.06;;;6.40;100.00
8069;BME280;4077;43.702;24.896;2023-12-28T08:04:16;100644.56;;;6.82;100.00
8069;BME280;4077;43.702;24.896;2023-12-28T08:06:41;100643.50;;;7.56;100.00
8069;BME280;4077;43.702;24.896;2023-12-28T08:09:06;100645.13;;;8.38;100.00
8069;BME280;4077;43.702;24.896;2023-12-28T08:11:32;100659.25;;;8.94;93.41
8069;BME280;4077;43.702;24.896;2023-12-28T08:13:57;100661.31;;;9.26;87.30
8069;BME280;4077;43.702;24.896;2023-12-28T08:16:23;100662.16;;;9.76;84.56
8069;BME280;4077;43.702;24.896;2023-12-28T08:18:48;100662.63;;;10.17;74.17
8069;BME280;4077;43.702;24.896;2023-12-28T08:21:14;100675.81;;;10.82;71.06
8069;BME280;4077;43.702;24.896;2023-12-28T08:23:39;100671.13;;;11.29;66.52
8069;BME280;4077;43.702;24.896;2023-12-28T08:26:05;100669.41;;;11.28;65.01
8069;BME280;4077;43.702;24.896;2023-12-28T08:28:32;100675.16;;;11.81;63.82
8069;BME280;4077;43.702;24.896;2023-12-28T08:30:58;100670.38;;;12.33;60.82
8069;BME280;4077;43.702;24.896;2023-12-28T08:33:24;100680.25;;;13.30;59.32
8069;BME280;4077;43.702;24.896;2023-12-28T08:35:54;100678.47;;;13.73;55.50
8069;BME280;4077;43.702;24.896;2023-12-28T08:38:20;100673.78;;;13.53;55.04
8069;BME280;4077;43.702;24.896;2023-12-28T08:40:45;100673.69;;;14.48;52.19
8069;BME280;4077;43.702;24.896;2023-12-28T08:43:11;100673.59;;;15.09;51.87
8069;BME280;4077;43.702;24.896;2023-12-28T08:45:36;100681.59;;;16.08;49.20
8069;BME280;4077;43.702;24.896;2023-12-28T08:48:02;100683.78;;;16.72;47.47
8069;BME280;4077;43.702;24.896;2023-12-28T08:50:28;100686.97;;;16.32;46.92
8069;BME280;4077;43.702;24.896;2023-12-28T08:52:54;100672.44;;;14.86;48.31
8069;BME280;4077;43.702;24.896;2023-12-28T08:55:21;100665.66;;;13.82;50.46
8069;BME280;4077;43.702;24.896;2023-12-28T08:57:47;100652.81;;;13.41;51.37
8069;BME280;4077;43.702;24.896;2023-12-28T09:00:14;100656.38;;;13.46;52.36
8069;BME280;4077;43.702;24.896;2023-12-28T09:02:42;100654.94;;;13.63;52.06
8069;BME280;4077;43.702;24.896;2023-12-28T09:05:09;100666.09;;;14.09;51.26
8069;BME280;4077;43.702;24.896;2023-12-28T09:07:34;100658.09;;;14.50;50.58
8069;BME280;4077;43.702;24.896;2023-12-28T09:10:01;100661.75;;;15.34;48.97
8069;BME280;4077;43.702;24.896;2023-12-28T09:12:27;100658.66;;;14.93;48.75
8069;BME280;4077;43.702;24.896;2023-12-28T09:14:53;100643.00;;;14.88;48.68
8069;BME280;4077;43.702;24.896;2023-12-28T09:17:21;100648.59;;;15.22;48.74
8069;BME280;4077;43.702;24.896;2023-12-28T09:19:47;100639.66;;;15.77;47.72
8069;BME280;4077;43.702;24.896;2023-12-28T09:22:13;100660.13;;;16.46;46.87
8069;BME280;4077;43.702;24.896;2023-12-28T09:24:38;100650.09;;;17.17;45.11
8069;BME280;4077;43.702;24.896;2023-12-28T09:27:03;100658.84;;;17.30;44.37
8069;BME280;4077;43.702;24.896;2023-12-28T09:29:29;100645.88;;;15.95;45.88
8069;BME280;4077;43.702;24.896;2023-12-28T09:31:54;100626.16;;;14.57;47.36
8069;BME280;4077;43.702;24.896;2023-12-28T09:34:20;100610.59;;;13.04;51.22
8069;BME280;4077;43.702;24.896;2023-12-28T09:36:45;100582.56;;;11.36;54.73
8069;BME280;4077;43.702;24.896;2023-12-28T09:39:11;100573.81;;;10.09;59.15
8069;BME280;4077;43.702;24.896;2023-12-28T09:41:39;100557.81;;;9.14;64.61
8069;BME280;4077;43.702;24.896;2023-12-28T09:44:09;100552.19;;;8.76;70.85
8069;BME280;4077;43.702;24.896;2023-12-28T09:46:36;100535.44;;;8.40;76.58
8069;BME280;4077;43.702;24.896;2023-12-28T09:49:04;100534.69;;;8.21;84.35
8069;BME280;4077;43.702;24.896;2023-12-28T09:51:29;100534.94;;;8.05;93.34
8069;BME280;4077;43.702;24.896;2023-12-28T09:53:56;100514.38;;;7.83;100.00
8069;BME280;4077;43.702;24.896;2023-12-28T09:56:21;100513.56;;;7.84;100.00
8069;BME280;4077;43.702;24.896;2023-12-28T09:58:50;100508.41;;;7.84;100.00
8069;BME280;4077;43.702;24.896;2023-12-28T10:01:17;100509.00;;;7.77;100.00
8069;BME280;4077;43.702;24.896;2023-12-28T10:03:43;100511.28;;;7.69;100.00
8069;BME280;4077;43.702;24.896;2023-12-28T10:06:08;100506.13;;;7.69;100.00
8069;BME280;4077;43.702;24.896;2023-12-28T10:08:34;100498.34;;;7.67;100.00
8069;BME280;4077;43.702;24.896;2023-12-28T10:11:01;100499.34;;;7.71;100.00
8069;BME280;4077;43.702;24.896;2023-12-28T10:13:28;100494.16;;;7.70;100.00
8069;BME280;4077;43.702;24.896;2023-12-28T10:15:57;100485.69;;;7.72;100.00
8069;BME280;4077;43.702;24.896;2023-12-28T10:18:23;100476.47;;;7.77;100.00
8069;BME280;4077;43.702;24.896;2023-12-28T10:20:52;100466.72;;;7.91;100.00
8069;BME280;4077;43.702;24.896;2023-12-28T10:23:19;100461.44;;;8.10;100.00
8069;BME280;4077;43.702;24.896;2023-12-28T10:25:46;100459.28;;;8.22;100.00
8069;BME280;4077;43.702;24.896;2023-12-28T10:28:12;100435.91;;;8.16;100.00
8069;BME280;4077;43.702;24.896;2023-12-28T10:30:38;100451.84;;;8.30;100.00
8069;BME280;4077;43.702;24.896;2023-12-28T10:33:05;100446.97;;;8.36;100.00
8069;BME280;4077;43.702;24.896;2023-12-28T10:35:31;100435.66;;;8.33;100.00
8069;BME280;4077;43.702;24.896;2023-12-28T10:38:00;100410.53;;;8.26;100.00
8069;BME280;4077;43.702;24.896;2023-12-28T10:40:26;100427.25;;;8.37;100.00
8069;BME280;4077;43.702;24.896;2023-12-28T10:42:58;100426.50;;;8.39;100.00
8069;BME280;4077;43.702;24.896;2023-12-28T10:45:28;100422.09;;;8.37;100.00
8069;BME280;4077;43.702;24.896;2023-12-28T10:50:41;100409.81;;;8.30;100.00
8069;BME280;4077;43.702;24.896;2023-12-28T10:56:30;100413.94;;;8.25;100.00
8069;BME280;4077;43.702;24.896;2023-12-28T11:02:03;100406.00;;;8.18;100.00
8069;BME280;4077;43.702;24.896;2023-12-28T11:04:44;100407.63;;;8.16;100.00
8069;BME280;4077;43.702;24.896;2023-12-28T11:07:14;100407.53;;;8.13;100.00
8069;BME280;4077;43.702;24.896;2023-12-28T11:09:41;100407.84;;;8.22;100.00
8069;BME280;4077;43.702;24.896;2023-12-28T11:12:07;100400.03;;;8.19;100.00
8069;BME280;4077;43.702;24.896;2023-12-28T11:14:36;100402.69;;;8.22;100.00
8069;BME280;4077;43.702;24.896;2023-12-28T11:17:04;100381.50;;;8.04;100.00
8069;BME280;4077;43.702;24.896;2023-12-28T11:19:30;100386.00;;;8.10;100.00
8069;BME280;4077;43.702;24.896;2023-12-28T11:21:57;100392.31;;;8.19;100.00
8069;BME280;4077;43.702;24.896;2023-12-28T11:24:26;100361.25;;;8.13;100.00
8069;BME280;4077;43.702;24.896;2023-12-28T11:26:53;100385.75;;;8.28;100.00
8069;BME280;4077;43.702;24.896;2023-12-28T11:29:22;100388.28;;;8.26;100.00
8069;BME280;4077;43.702;24.896;2023-12-28T11:31:52;100371.84;;;8.22;100.00
8069;BME280;4077;43.702;24.896;2023-12-28T11:34:18;100373.63;;;8.23;100.00
8069;BME280;4077;43.702;24.896;2023-12-28T11:36:48;100365.28;;;8.31;100.00
8069;BME280;4077;43.702;24.896;2023-12-28T11:39:20;100366.34;;;8.36;100.00
8069;BME280;4077;43.702;24.896;2023-12-28T11:42:46;100343.06;;;8.33;100.00
8069;BME280;4077;43.702;24.896;2023-12-28T11:44:53;100352.81;;;8.41;100.00
8069;BME280;4077;43.702;24.896;2023-12-28T11:47:25;100349.06;;;8.33;100.00
8069;BME280;4077;43.702;24.896;2023-12-28T11:49:52;100336.16;;;8.32;100.00
8069;BME280;4077;43.702;24.896;2023-12-28T11:52:27;100336.53;;;8.42;100.00
8069;BME280;4077;43.702;24.896;2023-12-28T11:54:53;100321.84;;;8.38;100.00
8069;BME280;4077;43.702;24.896;2023-12-28T11:57:18;100333.22;;;8.45;100.00
8069;BME280;4077;43.702;24.896;2023-12-28T11:59:44;100319.38;;;8.41;100.00
8069;BME280;4077;43.702;24.896;2023-12-28T12:02:10;100334.22;;;8.50;100.00
8069;BME280;4077;43.702;24.896;2023-12-28T12:04:36;100328.28;;;8.51;100.00
8069;BME280;4077;43.702;24.896;2023-12-28T12:07:02;100323.13;;;8.51;100.00
8069;BME280;4077;43.702;24.896;2023-12-28T12:09:31;100317.09;;;8.50;100.00
8069;BME280;4077;43.702;24.896;2023-12-28T12:12:03;100309.53;;;8.55;100.00
8069;BME280;4077;43.702;24.896;2023-12-28T12:14:29;100301.81;;;8.55;100.00
8069;BME280;4077;43.702;24.896;2023-12-28T12:16:58;100303.56;;;8.56;100.00
8069;BME280;4077;43.702;24.896;2023-12-28T12:19:24;100289.53;;;8.46;100.00
8069;BME280;4077;43.702;24.896;2023-12-28T12:21:55;100280.56;;;8.35;100.00
8069;BME280;4077;43.702;24.896;2023-12-28T12:24:21;100303.22;;;8.45;100.00
8069;BME280;4077;43.702;24.896;2023-12-28T12:26:47;100267.44;;;8.28;100.00
8069;BME280;4077;43.702;24.896;2023-12-28T12:29:15;100288.34;;;8.37;100.00
8069;BME280;4077;43.702;24.896;2023-12-28T12:31:41;100303.75;;;8.37;100.00
8069;BME280;4077;43.702;24.896;2023-12-28T12:34:11;100300.16;;;8.32;100.00
8069;BME280;4077;43.702;24.896;2023-12-28T12:36:37;100287.97;;;8.26;100.00
8069;BME280;4077;43.702;24.896;2023-12-28T12:39:03;100294.69;;;8.22;100.00
8069;BME280;4077;43.702;24.896;2023-12-28T12:41:33;100280.03;;;8.20;100.00
8069;BME280;4077;43.702;24.896;2023-12-28T12:43:59;100290.16;;;8.15;100.00
8069;BME280;4077;43.702;24.896;2023-12-28T12:46:25;100277.00;;;8.06;100.00
8069;BME280;4077;43.702;24.896;2023-12-28T12:48:57;100288.31;;;8.11;100.00
8069;BME280;4077;43.702;24.896;2023-12-28T12:51:24;100284.72;;;8.06;100.00
8069;BME280;4077;43.702;24.896;2023-12-28T12:53:50;100253.38;;;7.92;100.00
8069;BME280;4077;43.702;24.896;2023-12-28T12:56:16;100270.94;;;8.04;100.00
8069;BME280;4077;43.702;24.896;2023-12-28T12:58:43;100275.81;;;7.97;100.00
8069;BME280;4077;43.702;24.896;2023-12-28T13:01:12;100278.44;;;7.98;100.00
8069;BME280;4077;43.702;24.896;2023-12-28T13:03:37;100279.19;;;7.95;100.00
8069;BME280;4077;43.702;24.896;2023-12-28T13:06:04;100267.72;;;7.86;100.00